Time;durP1;ratioP1;P1;durP2;ratioP2;P2;SDS_P1;SDS_P2;PMS_P1;PMS_P2;Temp;Humidity;BMP_temperature;BMP_pressure;BME280_temperature;BME280_humidity;BME280_pressure;Samples;Min_cycle;Max_cycle;Signal;HPM_P1;HPM_P2
2022/05/16 00:00:08;;;;;;;7.38;3.92;;;;;;;14.20;97.75;99779.72;6317643;22;20054;-74
2022/05/16 00:02:34;;;;;;;8.70;3.25;;;;;;;14.30;97.05;99807.00;6285092;22;20023;-74
2022/05/16 00:04:59;;;;;;;6.78;2.92;;;;;;;14.26;96.90;99811.50;6306514;22;20765;-75
2022/05/16 00:07:25;;;;;;;8.32;3.75;;;;;;;14.23;97.25;99818.41;6309199;22;20003;-75
2022/05/16 00:09:50;;;;;;;5.93;2.95;;;;;;;14.22;97.42;99815.97;6282238;22;20011;-76
2022/05/16 00:12:17;;;;;;;8.70;3.63;;;;;;;14.22;97.38;99824.22;6260953;22;20010;-74
2022/05/16 00:14:44;;;;;;;8.70;3.72;;;;;;;14.17;97.39;99829.81;6284561;22;20469;-76
2022/05/16 00:17:11;;;;;;;11.43;3.30;;;;;;;14.21;97.00;99841.84;6309295;22;20003;-76
2022/05/16 00:19:37;;;;;;;9.25;3.33;;;;;;;14.23;97.01;99856.91;6309159;22;20007;-77
2022/05/16 00:22:03;;;;;;;12.70;3.38;;;;;;;14.20;96.92;99862.22;6308840;22;20003;-77
2022/05/16 00:24:29;;;;;;;7.85;2.60;;;;;;;14.17;97.13;99862.81;6307077;22;20038;-75
2022/05/16 00:26:56;;;;;;;14.48;3.55;;;;;;;14.16;97.06;99866.69;6309622;22;20003;-74
2022/05/16 00:29:24;;;;;;;9.60;3.00;;;;;;;14.17;97.47;99857.31;6308347;22;20017;-74
2022/05/16 00:31:50;;;;;;;9.02;3.20;;;;;;;14.21;97.23;99850.91;6306992;22;20003;-74
2022/05/16 00:34:16;;;;;;;6.82;3.30;;;;;;;14.20;97.54;99853.97;6283781;22;20029;-74
2022/05/16 00:36:47;;;;;;;11.05;3.10;;;;;;;14.17;97.16;99857.31;6307046;22;20011;-74
2022/05/16 00:39:16;;;;;;;10.63;3.38;;;;;;;14.13;97.56;99846.94;6309312;22;20000;-74
2022/05/16 00:41:43;;;;;;;9.27;3.25;;;;;;;14.11;98.01;99832.66;6310089;22;20003;-75
2022/05/16 00:44:10;;;;;;;8.93;3.17;;;;;;;14.16;98.02;99839.19;6309229;22;20332;-75
2022/05/16 00:46:36;;;;;;;5.07;2.55;;;;;;;14.14;97.96;99837.53;6308925;22;20062;-75
2022/05/16 00:49:04;;;;;;;15.10;2.83;;;;;;;14.12;98.57;99839.81;6308803;22;20022;-75
2022/05/16 00:51:46;;;;;;;10.75;2.88;;;;;;;14.08;98.64;99833.28;6310139;22;19995;-75
2022/05/16 00:54:20;;;;;;;6.55;2.45;;;;;;;14.12;98.92;99839.81;6304486;22;19999;-75
2022/05/16 00:56:50;;;;;;;5.68;2.70;;;;;;;14.14;98.89;99834.00;6309578;22;20003;-74
2022/05/16 00:59:17;;;;;;;5.18;2.13;;;;;;;14.11;98.73;99827.16;6310213;22;19999;-75
2022/05/16 01:07:11;;;;;;;7.07;2.00;;;;;;;14.24;98.59;99827.50;6308166;22;20661;-73
2022/05/16 01:09:37;;;;;;;7.82;3.08;;;;;;;14.26;98.60;99833.50;6308765;22;20610;-74
2022/05/16 01:12:03;;;;;;;4.15;2.00;;;;;;;14.28;98.23;99825.72;6310006;22;20003;-74
2022/05/16 01:14:51;;;;;;;8.85;2.40;;;;;;;14.29;98.88;99827.38;6280811;22;20773;-75
2022/05/16 01:17:17;;;;;;;3.63;1.92;;;;;;;14.29;98.93;99805.38;6312366;22;20037;-76
2022/05/16 01:19:42;;;;;;;3.45;1.45;;;;;;;14.35;99.01;99782.13;6307806;22;20011;-75
2022/05/16 01:22:38;;;;;;;2.70;1.35;;;;;;;14.44;98.47;99785.81;6284847;22;20126;-74
2022/05/16 01:25:11;;;;;;;2.67;1.40;;;;;;;14.47;98.20;99801.69;6310065;22;19999;-75
2022/05/16 01:27:54;;;;;;;3.92;1.40;;;;;;;14.47;98.40;99789.88;6310768;22;20006;-73
2022/05/16 01:30:24;;;;;;;3.10;1.10;;;;;;;14.50;98.41;99783.78;6308217;22;20045;-74
2022/05/16 01:32:52;;;;;;;3.72;1.00;;;;;;;14.56;98.16;99790.78;6308963;22;20094;-74
2022/05/16 01:35:22;;;;;;;0.93;0.80;;;;;;;14.59;98.40;99775.59;6312484;22;20003;-74
2022/05/16 01:40:32;;;;;;;1.25;1.08;;;;;;;14.65;97.91;99771.66;6309719;22;20014;-72
2022/05/16 01:42:58;;;;;;;3.25;1.38;;;;;;;14.64;98.04;99767.25;6282152;22;20066;-72
2022/05/16 01:45:23;;;;;;;4.80;1.60;;;;;;;14.66;97.48;99756.78;6283938;22;20011;-73
2022/05/16 01:48:05;;;;;;;2.50;1.48;;;;;;;14.53;97.59;99750.16;6280530;22;20018;-72
2022/05/16 01:50:36;;;;;;;4.70;2.03;;;;;;;14.58;97.38;99773.97;6310339;22;20003;-73
2022/05/16 01:53:39;;;;;;;4.55;2.28;;;;;;;14.53;97.19;99776.81;6279608;22;20084;-73
2022/05/16 01:56:04;;;;;;;2.47;1.85;;;;;;;14.54;97.25;99789.47;6292316;22;20021;-74
2022/05/16 01:58:30;;;;;;;3.63;2.00;;;;;;;14.51;97.19;99779.06;6286944;22;20037;-75
2022/05/16 02:00:55;;;;;;;2.90;1.58;;;;;;;14.59;97.38;99786.63;6307822;22;20008;-75
2022/05/16 02:03:21;;;;;;;1.88;1.55;;;;;;;14.59;96.82;99775.59;6282415;22;20015;-74
2022/05/16 02:05:47;;;;;;;3.53;1.73;;;;;;;14.60;96.75;99772.53;6309687;22;20561;-72
2022/05/16 02:08:14;;;;;;;2.70;1.50;;;;;;;14.59;97.14;99772.84;6308095;22;20134;-74
2022/05/16 02:10:41;;;;;;;2.15;1.63;;;;;;;14.59;96.75;99779.16;6309367;22;20010;-74
2022/05/16 02:13:08;;;;;;;1.73;1.38;;;;;;;14.55;96.86;99782.84;6310544;22;20039;-75
2022/05/16 02:15:36;;;;;;;1.98;1.10;;;;;;;14.56;96.71;99789.97;6308110;22;19999;-75
2022/05/16 02:18:03;;;;;;;3.90;1.50;;;;;;;14.54;96.95;99772.94;6311987;22;20003;-76
2022/05/16 02:20:28;;;;;;;4.50;1.83;;;;;;;14.57;96.70;99784.19;6308651;22;20380;-75
2022/05/16 02:25:43;;;;;;;4.00;1.88;;;;;;;14.50;96.72;99789.28;6309489;22;20014;-74
2022/05/16 02:28:11;;;;;;;6.32;2.33;;;;;;;14.50;96.72;99789.28;6307731;22;20081;-74
2022/05/16 02:30:37;;;;;;;8.45;2.53;;;;;;;14.46;96.84;99782.75;6305201;22;20004;-75
2022/05/16 02:33:04;;;;;;;2.38;1.85;;;;;;;14.44;96.73;99774.81;6284306;22;20106;-74
2022/05/16 02:35:33;;;;;;;4.90;1.90;;;;;;;14.43;96.58;99773.19;6306833;22;20000;-75
2022/05/16 02:37:59;;;;;;;2.90;1.55;;;;;;;14.44;96.95;99788.56;6309647;22;19999;-74
2022/05/16 02:40:31;;;;;;;4.47;1.80;;;;;;;14.42;97.03;99790.78;6309192;22;19999;-74
2022/05/16 02:42:57;;;;;;;7.20;2.58;;;;;;;14.40;96.89;99795.81;6309264;22;20030;-74
2022/05/16 02:45:25;;;;;;;6.00;3.03;;;;;;;14.33;96.86;99787.16;6283428;22;20007;-75
2022/05/16 02:47:51;;;;;;;5.10;2.45;;;;;;;14.29;96.74;99799.88;6308075;22;20070;-75
2022/05/16 02:50:18;;;;;;;5.30;2.45;;;;;;;14.30;96.94;99807.81;6307068;22;20014;-74
2022/05/16 02:52:43;;;;;;;9.02;3.70;;;;;;;14.28;96.96;99795.50;6308819;22;20010;-75
2022/05/16 02:55:10;;;;;;;6.35;3.20;;;;;;;14.29;96.91;99794.38;6306882;22;20011;-73
2022/05/16 02:57:35;;;;;;;5.57;2.25;;;;;;;14.30;97.10;99779.50;6311244;22;20011;-74
2022/05/16 03:00:01;;;;;;;9.90;2.55;;;;;;;14.28;97.24;99798.22;6308963;22;20042;-74
2022/05/16 03:02:27;;;;;;;13.20;4.78;;;;;;;14.23;97.11;99792.84;6310912;22;20015;-74
2022/05/16 03:04:53;;;;;;;3.95;2.63;;;;;;;14.22;97.06;99793.97;6282327;22;20018;-74
2022/05/16 03:07:19;;;;;;;4.75;2.85;;;;;;;14.15;97.13;99783.41;6305963;22;20005;-74
2022/05/16 03:09:47;;;;;;;6.10;2.88;;;;;;;14.13;97.37;99791.94;6309639;22;20014;-74
2022/05/16 03:12:13;;;;;;;4.70;2.42;;;;;;;14.12;98.62;99792.25;6308647;22;20334;-74
2022/05/16 03:14:38;;;;;;;6.60;2.35;;;;;;;14.11;99.24;99787.88;6307733;22;20049;-75
2022/05/16 03:17:04;;;;;;;5.78;2.65;;;;;;;14.08;99.35;99788.47;6309969;22;20004;-74
2022/05/16 03:19:30;;;;;;;6.30;2.67;;;;;;;14.04;98.95;99791.00;6281655;22;20007;-75
2022/05/16 03:21:55;;;;;;;6.45;2.30;;;;;;;14.02;99.24;99801.50;6313054;22;20009;-75
2022/05/16 03:24:21;;;;;;;8.23;3.15;;;;;;;14.06;98.83;99812.69;6312873;22;20050;-75
2022/05/16 03:26:47;;;;;;;9.10;2.95;;;;;;;14.07;98.50;99815.13;6308453;22;19998;-74
2022/05/16 03:29:13;;;;;;;4.70;2.22;;;;;;;14.06;98.56;99802.53;6283045;22;20113;-74
2022/05/16 03:31:41;;;;;;;12.70;2.75;;;;;;;14.05;98.33;99800.91;6284481;22;20066;-75
2022/05/16 03:34:10;;;;;;;8.30;2.90;;;;;;;14.07;98.13;99815.13;6308664;22;20010;-74
2022/05/16 03:36:37;;;;;;;12.80;3.15;;;;;;;14.06;97.62;99813.53;6282075;22;20102;-75
2022/05/16 03:41:47;;;;;;;7.13;2.45;;;;;;;14.08;97.71;99800.28;6308480;22;20019;-74
2022/05/16 03:44:13;;;;;;;10.07;3.35;;;;;;;14.07;97.69;99801.41;6283959;22;20426;-74
2022/05/16 03:46:38;;;;;;;12.95;3.67;;;;;;;14.01;97.63;99799.06;6283278;22;20011;-74
2022/05/16 03:49:05;;;;;;;9.63;3.58;;;;;;;14.00;97.63;99811.97;6310730;22;20007;-75
2022/05/16 03:51:31;;;;;;;16.35;4.35;;;;;;;14.00;97.58;99827.66;6312356;22;20014;-75
2022/05/16 03:53:56;;;;;;;16.73;4.63;;;;;;;13.93;97.16;99830.78;6314437;22;20401;-75
2022/05/16 03:56:25;;;;;;;19.52;3.95;;;;;;;13.85;97.89;99829.56;6284910;22;20003;-74
2022/05/16 03:58:51;;;;;;;12.07;3.38;;;;;;;13.83;98.43;99814.50;6307278;22;20086;-75
2022/05/16 04:01:17;;;;;;;8.75;3.70;;;;;;;13.89;97.72;99835.28;6256367;22;20434;-75
2022/05/16 04:03:43;;;;;;;10.63;3.17;;;;;;;13.85;98.23;99828.75;6310604;22;20010;-75
2022/05/16 04:06:08;;;;;;;9.55;2.80;;;;;;;13.91;98.26;99833.84;6303890;22;20173;-74
2022/05/16 04:08:37;;;;;;;11.48;3.95;;;;;;;13.88;97.96;99828.97;6280975;22;20013;-74
2022/05/16 04:11:04;;;;;;;10.93;3.15;;;;;;;13.88;97.82;99837.22;6286261;22;20016;-75
2022/05/16 04:13:30;;;;;;;19.55;4.00;;;;;;;13.90;97.83;99843.22;6308595;22;20010;-75
2022/05/16 04:15:56;;;;;;;19.38;3.90;;;;;;;13.91;97.56;99844.03;6309803;22;20003;-75
2022/05/16 04:18:21;;;;;;;15.88;4.70;;;;;;;13.83;97.54;99836.47;6282019;22;20030;-75
2022/05/16 04:20:47;;;;;;;20.10;4.97;;;;;;;13.86;97.87;99857.88;6284541;22;20023;-74
2022/05/16 04:23:13;;;;;;;36.47;6.45;;;;;;;13.81;97.90;99871.69;6282617;22;20007;-75
2022/05/16 04:25:40;;;;;;;30.75;6.68;;;;;;;13.71;97.62;99858.94;6258766;22;20003;-75
2022/05/16 04:28:06;;;;;;;25.23;6.30;;;;;;;13.64;98.20;99867.59;6311162;22;20007;-76
2022/05/16 04:30:32;;;;;;;17.88;5.68;;;;;;;13.63;98.09;99882.44;6284856;22;20011;-75
2022/05/16 04:32:58;;;;;;;29.27;6.95;;;;;;;13.56;98.12;99877.31;6310361;22;20007;-74
2022/05/16 04:35:24;;;;;;;22.40;8.35;;;;;;;13.56;98.65;99887.50;6282861;22;20018;-74
2022/05/16 04:37:49;;;;;;;22.63;9.48;;;;;;;13.60;98.88;99889.34;6284569;22;20007;-72
2022/05/16 04:40:15;;;;;;;25.90;8.40;;;;;;;13.48;98.70;99879.91;6305690;22;20029;-73
2022/05/16 04:42:40;;;;;;;27.60;9.82;;;;;;;13.42;98.55;99879.22;6306865;22;20007;-74
2022/05/16 04:45:14;;;;;;;23.23;9.30;;;;;;;13.48;98.75;99896.41;6310671;22;20010;-73
2022/05/16 04:47:40;;;;;;;37.53;10.15;;;;;;;13.50;99.13;99888.69;6308609;22;20037;-73
2022/05/16 04:50:06;;;;;;;20.30;9.10;;;;;;;13.53;98.55;99899.06;6284929;22;20007;-74
2022/05/16 04:52:32;;;;;;;23.17;9.65;;;;;;;13.58;98.47;99894.31;6309656;22;20017;-73
2022/05/16 04:54:59;;;;;;;31.63;11.27;;;;;;;13.58;98.52;99897.06;6308138;22;20398;-73
2022/05/16 04:57:25;;;;;;;28.50;11.23;;;;;;;13.63;97.58;99909.91;6282189;22;20010;-74
2022/05/16 04:59:50;;;;;;;22.98;10.88;;;;;;;13.53;97.60;99899.06;6306696;22;20007;-73
2022/05/16 05:02:16;;;;;;;25.77;11.40;;;;;;;13.65;97.66;99917.84;6308414;22;20099;-73
2022/05/16 05:04:43;;;;;;;27.15;10.73;;;;;;;13.67;97.35;99921.09;6306045;22;20015;-73
2022/05/16 05:07:09;;;;;;;29.30;9.90;;;;;;;13.69;97.38;99933.44;6308966;22;20256;-75
2022/05/16 05:14:32;;;;;;;29.77;12.40;;;;;;;13.73;96.91;99930.91;6307306;22;20064;-75
2022/05/16 05:15:08;;;;;;;34.10;12.50;;;;;;;13.83;95.70;99951.91;6309696;22;20014;-75
2022/05/16 05:17:35;;;;;;;21.73;10.57;;;;;;;13.83;95.73;99946.41;6280665;22;20054;-74
2022/05/16 05:20:02;;;;;;;25.23;10.77;;;;;;;13.85;95.34;99957.94;6305325;22;19987;-74
2022/05/16 05:22:28;;;;;;;30.08;11.23;;;;;;;13.87;95.40;99963.94;6310024;22;20011;-74
2022/05/16 05:24:53;;;;;;;16.80;9.07;;;;;;;13.85;94.89;99974.41;6258195;22;20042;-74
2022/05/16 05:27:19;;;;;;;21.73;9.60;;;;;;;13.86;94.64;99973.31;6308393;22;20015;-76
2022/05/16 05:29:44;;;;;;;14.88;7.63;;;;;;;13.86;95.11;99978.81;6311284;22;20007;-74
2022/05/16 05:32:10;;;;;;;16.88;7.32;;;;;;;13.84;94.38;99975.53;6305992;22;20841;-72
2022/05/16 05:34:41;;;;;;;20.35;8.90;;;;;;;13.86;94.23;99974.13;6280684;22;20089;-74
2022/05/16 05:37:07;;;;;;;17.60;8.07;;;;;;;13.94;94.15;99991.84;6310448;22;20003;-74
2022/05/16 05:39:34;;;;;;;19.73;9.70;;;;;;;13.99;94.21;99994.53;6306103;22;20370;-74
2022/05/16 05:42:00;;;;;;;21.13;10.30;;;;;;;13.96;93.67;99987.69;6307368;22;20013;-76
2022/05/16 05:44:25;;;;;;;25.15;10.88;;;;;;;14.00;93.63;99996.16;6309025;22;20055;-76
2022/05/16 05:46:51;;;;;;;28.05;12.68;;;;;;;13.93;93.49;99995.72;6284946;22;20064;-75
2022/05/16 05:49:17;;;;;;;27.88;10.57;;;;;;;13.94;93.72;100003.69;6309509;22;20384;-76
2022/05/16 05:51:43;;;;;;;28.05;12.15;;;;;;;13.92;94.26;100002.34;6259393;22;20022;-76
2022/05/16 05:54:12;;;;;;;25.75;12.75;;;;;;;13.87;93.82;100000.50;6282602;22;20090;-77
2022/05/16 05:56:38;;;;;;;33.65;12.05;;;;;;;13.96;94.06;100022.63;6311202;22;20021;-75
2022/05/16 05:59:14;;;;;;;35.90;13.60;;;;;;;13.93;94.38;100012.19;6279744;22;20405;-75
2022/05/16 06:01:42;;;;;;;41.55;15.68;;;;;;;13.87;94.22;100018.91;6301646;22;20042;-76
2022/05/16 06:04:07;;;;;;;37.70;13.82;;;;;;;13.93;94.31;100043.28;6254151;22;20433;-74
2022/05/16 06:06:32;;;;;;;38.63;14.60;;;;;;;13.93;94.27;100046.03;6307950;22;20011;-74
2022/05/16 06:08:58;;;;;;;31.25;14.75;;;;;;;13.85;94.33;100032.13;6304991;22;20014;-75
2022/05/16 06:11:28;;;;;;;33.17;15.38;;;;;;;13.86;94.74;100040.09;6255558;22;20007;-74
2022/05/16 06:13:54;;;;;;;34.75;16.25;;;;;;;13.74;95.05;100037.78;6308512;22;20003;-74
2022/05/16 06:16:20;;;;;;;34.58;16.02;;;;;;;13.83;95.34;100050.84;6254840;22;20029;-74
2022/05/16 06:18:45;;;;;;;33.15;15.60;;;;;;;13.83;95.34;100056.34;6306876;22;20003;-74
2022/05/16 06:21:11;;;;;;;26.38;13.38;;;;;;;13.82;95.62;100066.53;6309202;22;20013;-74
2022/05/16 06:23:36;;;;;;;26.67;14.38;;;;;;;13.85;95.99;100065.13;6307707;22;20042;-74
2022/05/16 06:26:01;;;;;;;31.25;13.27;;;;;;;13.85;95.58;100065.91;6257257;22;20007;-74
2022/05/16 06:28:28;;;;;;;28.67;12.25;;;;;;;13.86;95.61;100067.56;6308468;22;20534;-74
2022/05/16 06:30:56;;;;;;;26.58;11.18;;;;;;;13.94;94.98;100080.66;6308206;22;20406;-74
2022/05/16 06:33:25;;;;;;;19.20;10.77;;;;;;;13.97;95.00;100081.97;6285104;22;20006;-74
2022/05/16 06:35:52;;;;;;;28.30;10.63;;;;;;;14.02;94.51;100076.41;6286189;22;20011;-77
2022/05/16 06:38:23;;;;;;;19.25;10.45;;;;;;;14.01;93.89;100069.28;6309729;22;20026;-75
2022/05/16 06:40:49;;;;;;;27.50;10.13;;;;;;;14.03;93.63;100066.22;6309537;22;20024;-76
2022/05/16 06:43:17;;;;;;;28.17;8.85;;;;;;;14.19;93.53;100069.56;6282598;22;20007;-77
2022/05/16 06:46:10;;;;;;;14.98;7.95;;;;;;;14.37;92.88;100074.22;6283830;22;20429;-75
2022/05/16 06:48:35;;;;;;;13.98;7.45;;;;;;;14.55;91.91;100072.53;6291858;22;20081;-74
2022/05/16 06:51:02;;;;;;;23.50;8.25;;;;;;;14.62;90.62;100063.94;6285676;22;20011;-75
2022/05/16 06:53:31;;;;;;;21.02;7.72;;;;;;;14.69;90.10;100074.53;6310929;22;20011;-74
2022/05/16 06:56:13;;;;;;;13.35;6.10;;;;;;;14.64;90.25;100081.75;6313277;22;20010;-79
2022/05/16 06:59:24;;;;;;;10.57;4.78;;;;;;;14.66;90.35;100095.25;6310056;22;19999;-78
2022/05/16 07:01:54;;;;;;;23.15;6.32;;;;;;;14.45;90.34;100084.53;6312678;22;20021;-78
2022/05/16 07:04:23;;;;;;;12.05;5.43;;;;;;;14.73;89.89;100090.13;6313761;22;20007;-77
2022/05/16 07:06:51;;;;;;;12.05;5.13;;;;;;;15.13;88.62;100079.50;6313102;22;20015;-76
2022/05/16 07:09:20;;;;;;;8.95;4.05;;;;;;;15.38;86.04;100088.38;6313328;22;20010;-75
2022/05/16 07:11:54;;;;;;;8.93;4.30;;;;;;;15.25;86.21;100100.22;6311512;22;20007;-75
2022/05/16 07:14:30;;;;;;;;;;;;;;;;;;;;;
2022/05/16 07:16:56;;;;;;;12.77;3.90;;;;;;;15.07;86.02;100108.28;6307076;22;20534;-76
2022/05/16 07:19:34;;;;;;;;;;;;;;;;;;;;;
2022/05/16 07:22:23;;;;;;;24.30;4.28;;;;;;;15.44;85.89;100120.22;6313273;22;20030;-75
2022/05/16 07:24:55;;;;;;;10.73;3.42;;;;;;;15.66;84.97;100110.41;6311720;22;20007;-76
2022/05/16 07:30:12;;;;;;;9.50;3.33;;;;;;;16.05;82.14;100133.88;6315528;22;20050;-75
2022/05/16 07:32:43;;;;;;;12.23;3.58;;;;;;;15.97;81.88;100120.81;6310313;22;20425;-76
2022/05/16 07:35:19;;;;;;;13.23;3.22;;;;;;;16.55;81.04;100120.00;6284747;22;20488;-75
2022/05/16 07:37:53;;;;;;;11.35;2.80;;;;;;;17.00;78.57;100113.66;6310559;22;20017;-76
2022/05/16 07:40:21;;;;;;;8.98;2.88;;;;;;;17.15;76.02;100109.66;6283533;22;20361;-76
2022/05/16 07:42:47;;;;;;;10.10;2.70;;;;;;;17.26;76.13;100099.97;6315694;22;19999;-76
2022/05/16 07:45:17;;;;;;;9.98;2.40;;;;;;;17.37;75.63;100106.00;6314274;22;20020;-76
2022/05/16 07:48:02;;;;;;;;;;;;;;;;;;;;;
2022/05/16 07:50:38;;;;;;;9.15;2.55;;;;;;;16.80;77.52;100101.16;6316325;22;20027;-78
2022/05/16 07:53:12;;;;;;;8.82;2.38;;;;;;;16.74;78.78;100132.81;6309999;22;20003;-76
2022/05/16 07:56:01;;;;;;;15.88;2.28;;;;;;;16.47;78.94;100151.13;6313745;22;20780;-76
2022/05/16 07:58:31;;;;;;;13.65;2.63;;;;;;;16.22;79.46;100138.72;6312440;22;20062;-76
2022/05/16 08:00:57;;;;;;;17.48;3.47;;;;;;;16.17;80.11;100147.94;6311435;22;19995;-75
2022/05/16 08:03:27;;;;;;;8.57;2.95;;;;;;;16.39;80.14;100151.84;6285352;22;20047;-75
2022/05/16 08:05:53;;;;;;;7.03;2.22;;;;;;;16.86;79.63;100146.03;6308944;22;19999;-75
2022/05/16 08:11:51;;;;;;;5.80;2.47;;;;;;;17.55;75.76;100134.53;6312554;22;20138;-75
2022/05/16 08:14:19;;;;;;;10.10;2.42;;;;;;;17.60;75.48;100131.63;6190297;23;20001;-76
2022/05/16 08:16:45;;;;;;;13.48;3.20;;;;;;;17.66;74.24;100156.38;6192084;23;20012;-78
2022/05/16 08:19:13;;;;;;;8.02;1.98;;;;;;;17.78;75.02;100170.38;6272238;22;20030;-74
2022/05/16 08:21:42;;;;;;;13.00;2.40;;;;;;;18.20;74.53;100175.56;6282558;22;20007;-75
2022/05/16 08:24:16;;;;;;;12.88;3.28;;;;;;;18.28;72.50;100175.56;6312333;22;20013;-77
2022/05/16 08:26:55;;;;;;;12.82;2.03;;;;;;;18.90;72.17;100165.31;6310449;22;20038;-75
2022/05/16 08:29:35;;;;;;;8.35;2.25;;;;;;;19.63;69.94;100178.28;6311412;22;20062;-76
2022/05/16 08:32:10;;;;;;;11.15;2.78;;;;;;;20.12;66.82;100161.25;6314019;22;20019;-75
2022/05/16 08:35:09;;;;;;;8.02;1.88;;;;;;;20.86;65.51;100174.72;6288823;22;20070;-78
2022/05/16 08:41:04;;;;;;;9.90;2.08;;;;;;;20.60;62.29;100200.72;6314268;22;20018;-77
2022/05/16 08:43:58;;;;;;;9.73;2.20;;;;;;;19.40;65.74;100168.59;6311525;22;20003;-75
2022/05/16 08:46:40;;;;;;;13.18;2.45;;;;;;;18.84;67.83;100188.75;6312542;22;19999;-75
2022/05/16 08:49:25;;;;;;;15.98;2.88;;;;;;;18.62;69.62;100218.25;6308843;22;20003;-76
2022/05/16 08:52:07;;;;;;;16.65;2.65;;;;;;;18.51;69.90;100208.63;6274242;22;20591;-77
2022/05/16 08:54:45;;;;;;;14.43;3.10;;;;;;;18.48;69.13;100221.16;6311699;22;20003;-74
2022/05/16 08:57:15;;;;;;;14.43;2.90;;;;;;;18.22;68.89;100215.59;6284485;22;20528;-74
2022/05/16 08:59:47;;;;;;;17.55;3.25;;;;;;;18.10;70.87;100220.94;6312534;22;20023;-77
2022/05/16 09:02:21;;;;;;;25.10;3.88;;;;;;;18.33;70.83;100218.09;6298124;22;20472;-74
2022/05/16 09:04:52;;;;;;;16.13;3.13;;;;;;;18.78;69.36;100228.84;6315587;22;19998;-76
2022/05/16 09:10:58;;;;;;;14.98;2.58;;;;;;;19.88;64.87;100231.25;6214707;23;20001;-76
2022/05/16 09:14:03;;;;;;;9.65;2.17;;;;;;;20.32;63.16;100245.69;6316845;22;20057;-75
2022/05/16 09:16:37;;;;;;;16.13;2.92;;;;;;;20.36;59.96;100279.97;6330052;22;20022;-75
2022/05/16 09:19:39;;;;;;;25.30;4.00;;;;;;;19.78;62.49;100259.34;6316260;22;20160;-76
2022/05/16 09:22:28;;;;;;;19.40;3.65;;;;;;;19.86;63.86;100280.72;6316140;22;20018;-75
2022/05/16 09:25:55;;;;;;;20.60;3.33;;;;;;;20.53;60.91;100284.63;6253523;22;20086;-76
2022/05/16 09:28:37;;;;;;;19.85;3.10;;;;;;;20.64;60.70;100284.22;6167701;23;20004;-76
2022/05/16 09:31:40;;;;;;;22.40;3.67;;;;;;;20.90;59.59;100286.84;6188766;23;20020;-76
2022/05/16 09:34:07;;;;;;;16.90;3.88;;;;;;;20.90;58.28;100320.19;6342224;22;20006;-77
2022/05/16 09:36:42;;;;;;;14.18;2.92;;;;;;;20.54;59.88;100290.97;6290072;22;20014;-77
2022/05/16 09:39:10;;;;;;;27.60;4.10;;;;;;;20.22;60.09;100304.38;6317239;22;20032;-76
2022/05/16 09:41:58;;;;;;;17.92;4.03;;;;;;;19.97;61.71;100306.13;6316760;22;20078;-77
2022/05/16 09:44:26;;;;;;;19.98;3.88;;;;;;;20.38;59.52;100299.06;6316100;22;20007;-74
2022/05/16 09:47:18;;;;;;;22.27;3.30;;;;;;;21.34;58.00;100303.94;6315099;22;20006;-77
2022/05/16 09:49:47;;;;;;;17.45;3.30;;;;;;;22.82;53.70;100306.88;6315493;22;20002;-76
2022/05/16 09:52:21;;;;;;;10.82;2.50;;;;;;;24.37;48.80;100311.09;6289041;22;20030;-75
2022/05/16 09:54:59;;;;;;;17.63;2.70;;;;;;;25.98;45.80;100313.97;6315708;22;20086;-77
2022/05/16 09:57:25;;;;;;;12.55;3.30;;;;;;;26.82;41.59;100315.75;6316436;22;20002;-76
2022/05/16 09:59:54;;;;;;;11.75;2.85;;;;;;;29.26;38.28;100323.97;6315868;22;20003;-77
2022/05/16 10:02:35;;;;;;;13.40;2.13;;;;;;;28.64;37.07;100314.41;6310994;22;20068;-75
2022/05/16 10:05:24;;;;;;;15.52;2.83;;;;;;;28.48;38.09;100316.69;6311741;22;20015;-76
2022/05/16 10:08:00;;;;;;;14.23;2.45;;;;;;;29.94;35.95;100309.25;6307845;22;20010;-78
2022/05/16 10:10:46;;;;;;;;;;;;;;;;;;;;;
2022/05/16 10:13:16;;;;;;;9.82;2.40;;;;;;;31.31;33.89;100309.00;6310600;22;20034;-77
2022/05/16 10:15:49;;;;;;;29.58;2.45;;;;;;;32.40;31.35;100321.16;6282483;22;20392;-75
2022/05/16 10:18:19;;;;;;;7.95;2.05;;;;;;;29.06;35.03;100334.72;6311393;22;20066;-75
2022/05/16 10:20:52;;;;;;;12.35;2.88;;;;;;;27.30;38.07;100305.91;6308988;22;20003;-76
2022/05/16 10:23:29;;;;;;;8.35;2.17;;;;;;;26.15;41.08;100333.09;6309351;22;20000;-76
2022/05/16 10:26:01;;;;;;;7.90;2.60;;;;;;;25.70;42.92;100287.09;6309161;22;20014;-76
2022/05/16 10:28:40;;;;;;;8.95;1.73;;;;;;;28.39;38.45;100309.38;6311269;22;20525;-75
2022/05/16 10:34:24;;;;;;;15.38;2.33;;;;;;;30.96;32.06;100316.38;6312766;22;20029;-76
2022/05/16 10:40:07;;;;;;;16.38;2.50;;;;;;;24.28;44.67;100334.78;6250770;23;20014;-76
2022/05/16 10:42:49;;;;;;;15.20;2.47;;;;;;;23.86;46.82;100331.38;6299386;22;20027;-74
2022/05/16 10:45:23;;;;;;;14.95;2.72;;;;;;;23.20;47.26;100321.53;6308413;22;20003;-76
2022/05/16 10:48:14;;;;;;;14.25;2.13;;;;;;;22.57;50.53;100355.44;6310322;22;20003;-76
2022/05/16 11:01:22;;;;;;;6.45;1.95;;;;;;;29.35;37.20;100327.22;6250701;23;20453;-77
2022/05/16 11:04:15;;;;;;;8.75;2.17;;;;;;;30.69;33.71;100375.31;6247497;23;20020;-77
2022/05/16 11:07:56;;;;;;;;;;;;;;;;;;;;;
2022/05/16 11:11:43;;;;;;;;;;;;;;;;;;;;;
2022/05/16 11:14:58;;;;;;;10.15;1.67;;;;;;;23.66;47.16;100365.88;6179930;23;20023;-76
2022/05/16 11:17:32;;;;;;;9.70;2.15;;;;;;;22.06;51.61;100392.75;6195921;22;20373;-78
2022/05/16 11:20:23;;;;;;;15.77;2.10;;;;;;;20.57;60.97;100371.69;6284761;22;20101;-76
2022/05/16 11:23:47;;;;;;;7.55;2.05;;;;;;;18.80;69.72;100376.94;6285262;22;20000;-76
2022/05/16 11:26:31;;;;;;;11.63;2.00;;;;;;;19.14;69.73;100357.97;6281069;22;20033;-76
2022/05/16 11:29:19;;;;;;;7.45;1.80;;;;;;;22.64;57.49;100362.06;6277449;22;20010;-73
2022/05/16 11:31:44;;;;;;;8.93;1.77;;;;;;;24.83;48.43;100372.06;6283630;22;20015;-77
2022/05/16 11:34:22;;;;;;;5.55;1.45;;;;;;;24.08;48.44;100371.03;6280706;22;20014;-76
2022/05/16 11:40:47;;;;;;;7.55;1.75;;;;;;;20.73;57.66;100360.00;6280144;22;20015;-75
2022/05/16 11:43:15;;;;;;;6.57;1.73;;;;;;;19.80;61.05;100374.41;6279610;22;20049;-76
2022/05/16 11:46:05;;;;;;;12.20;2.28;;;;;;;19.08;65.99;100364.81;6280846;22;20332;-75
2022/05/16 11:48:49;;;;;;;11.57;1.73;;;;;;;17.73;77.11;100378.75;6284104;22;20153;-75
2022/05/16 11:51:26;;;;;;;10.33;2.13;;;;;;;16.91;83.99;100369.66;6284713;22;19995;-77
2022/05/16 11:54:01;;;;;;;11.45;2.10;;;;;;;16.69;86.67;100367.59;6279234;22;20235;-75
2022/05/16 12:02:35;;;;;;;13.98;2.63;;;;;;;16.45;89.22;100385.19;6302086;22;20017;-75
2022/05/16 12:05:00;;;;;;;11.15;2.33;;;;;;;16.19;90.41;100393.97;6299490;22;20011;-75
2022/05/16 12:07:38;;;;;;;13.57;3.28;;;;;;;15.92;92.55;100393.94;6314796;22;19991;-75
2022/05/16 12:10:09;;;;;;;13.63;3.35;;;;;;;15.57;93.66;100402.47;6315870;22;20013;-76
2022/05/16 12:12:38;;;;;;;10.65;2.72;;;;;;;15.32;96.17;100412.75;6342812;22;20003;-75
2022/05/16 12:15:16;;;;;;;7.60;2.75;;;;;;;15.43;98.36;100415.34;6343067;22;20417;-77
2022/05/16 12:18:30;;;;;;;8.30;2.28;;;;;;;15.28;97.51;100419.16;6317226;22;20003;-77
2022/05/16 12:20:58;;;;;;;15.48;6.15;;;;;;;15.39;98.59;100434.44;6313137;22;20005;-75
2022/05/16 12:23:48;;;;;;;12.73;4.85;;;;;;;15.94;98.77;100409.03;6309901;22;20247;-74
2022/05/16 12:26:44;;;;;;;9.82;3.38;;;;;;;16.31;93.10;100423.00;6335958;22;20003;-75
2022/05/16 12:29:09;;;;;;;;;;;;;;;16.18;93.98;100419.13;6206681;22;20432;-74
2022/05/16 12:31:49;;;;;;;7.50;2.90;;;;;;;16.28;94.48;100407.88;6342676;22;19910;-75
2022/05/16 12:34:40;;;;;;;10.43;2.78;;;;;;;17.23;91.55;100418.38;6316633;22;20278;-75
2022/05/16 12:37:09;;;;;;;9.48;2.30;;;;;;;18.51;83.83;100416.28;6345513;22;20054;-75
2022/05/16 12:39:59;;;;;;;11.18;2.58;;;;;;;18.54;81.89;100439.75;6317974;22;20006;-75
2022/05/16 12:42:47;;;;;;;6.30;1.73;;;;;;;18.30;81.82;100411.31;6315554;22;19998;-74
2022/05/16 12:45:32;;;;;;;12.85;2.22;;;;;;;20.82;76.71;100412.75;6315583;22;20034;-75
2022/05/16 12:48:20;;;;;;;8.15;1.90;;;;;;;24.24;63.37;100424.13;6344250;22;20082;-74
2022/05/16 12:50:54;;;;;;;8.07;1.77;;;;;;;24.66;58.83;100417.19;6315782;22;19999;-75
2022/05/16 12:53:48;;;;;;;9.70;1.95;;;;;;;22.99;58.94;100416.50;6344803;22;20007;-74